createdAt,value
2018-12-26T00:00:09.463Z,85.45
2018-12-26T00:00:35.719Z,85.64
2018-12-26T00:01:01.824Z,86.11
2018-12-26T00:01:28.129Z,86.3
2018-12-26T00:01:54.386Z,86.02
2018-12-26T00:02:20.489Z,85.83
2018-12-26T00:02:46.918Z,85.83
2018-12-26T00:03:12.722Z,86.21
2018-12-26T00:03:38.828Z,85.83
2018-12-26T00:04:04.933Z,86.02
2018-12-26T00:04:31.033Z,86.21
2018-12-26T00:04:57.136Z,86.3
2018-12-26T00:05:23.386Z,86.3
2018-12-26T00:05:49.780Z,86.3
2018-12-26T00:06:15.849Z,86.78
2018-12-26T00:06:41.950Z,86.21
2018-12-26T00:07:08.059Z,86.4
2018-12-26T00:07:34.195Z,86.64
2018-12-26T00:08:00.346Z,86.59
2018-12-26T00:08:26.444Z,86.4
2018-12-26T00:08:52.576Z,86.59
2018-12-26T00:09:18.677Z,87.4
2018-12-26T00:09:44.787Z,87.54
2018-12-26T00:10:10.886Z,87.16
2018-12-26T00:10:36.994Z,86.87
2018-12-26T00:11:03.100Z,87.02
2018-12-26T00:11:29.205Z,87.3
2018-12-26T00:11:55.339Z,87.35
2018-12-26T00:12:21.441Z,87.35
2018-12-26T00:12:47.547Z,86.74
2018-12-26T00:13:13.684Z,86.87
2018-12-26T00:13:39.786Z,87.54
2018-12-26T00:14:05.924Z,87.25
2018-12-26T00:14:32.032Z,87.35
2018-12-26T00:14:58.142Z,87.25
2018-12-26T00:15:24.244Z,87.25
2018-12-26T00:15:50.351Z,87.35
2018-12-26T00:16:16.454Z,86.97
2018-12-26T00:16:42.620Z,86.78
2018-12-26T00:17:08.724Z,87.25
2018-12-26T00:17:34.837Z,86.97
2018-12-26T00:18:00.940Z,87.16
2018-12-26T00:18:27.161Z,87.16
2018-12-26T00:18:53.389Z,86.78
2018-12-26T00:19:19.488Z,86.78
2018-12-26T00:19:45.722Z,86.78
2018-12-26T00:20:12.346Z,86.78
2018-12-26T00:20:38.469Z,87.25
2018-12-26T00:21:04.654Z,86.97
2018-12-26T00:21:30.755Z,86.78
2018-12-26T00:21:56.855Z,86.97
2018-12-26T00:22:22.963Z,87.16
2018-12-26T00:22:49.066Z,86.97
2018-12-26T00:23:15.174Z,87.25
2018-12-26T00:23:41.303Z,87.25
2018-12-26T00:24:07.520Z,87.45
2018-12-26T00:24:33.627Z,86.59
2018-12-26T00:24:59.810Z,87.06
2018-12-26T00:25:26.117Z,86.59
2018-12-26T00:25:52.201Z,86.49
2018-12-26T00:26:19.319Z,86.49
2018-12-26T00:26:45.428Z,86.21
2018-12-26T00:27:11.534Z,86.49
2018-12-26T00:27:37.637Z,86.59
2018-12-26T00:28:03.751Z,86.59
2018-12-26T00:28:29.884Z,86.59
2018-12-26T00:28:55.990Z,86.4
2018-12-26T00:29:22.085Z,86.49
2018-12-26T00:29:48.936Z,86.49
2018-12-26T00:30:15.047Z,86.97
2018-12-26T00:30:41.156Z,86.4
2018-12-26T00:31:07.260Z,86.45
2018-12-26T00:31:33.391Z,87.06
2018-12-26T00:31:59.549Z,87.25
2018-12-26T00:32:25.662Z,86.83
2018-12-26T00:32:51.891Z,87.16
2018-12-26T00:33:17.931Z,87.06
2018-12-26T00:33:44.043Z,87.25
2018-12-26T00:34:10.153Z,87.45
2018-12-26T00:34:36.281Z,87.16
2018-12-26T00:35:02.377Z,87.06
2018-12-26T00:35:28.487Z,86.97
2018-12-26T00:35:54.613Z,86.87
2018-12-26T00:36:20.722Z,87.06
2018-12-26T00:36:46.826Z,86.87
2018-12-26T00:37:12.936Z,86.93
2018-12-26T00:37:39.070Z,86.97
2018-12-26T00:38:05.174Z,86.78
2018-12-26T00:38:31.281Z,86.87
2018-12-26T00:38:57.382Z,86.78
2018-12-26T00:39:23.490Z,87.06
2018-12-26T00:39:49.590Z,86.68
2018-12-26T00:40:15.699Z,86.97
2018-12-26T00:40:41.798Z,86.87
2018-12-26T00:41:07.905Z,87.25
2018-12-26T00:41:34.006Z,87.16
2018-12-26T00:42:00.122Z,86.87
2018-12-26T00:42:26.216Z,86.87
2018-12-26T00:42:52.324Z,87.06
2018-12-26T00:43:18.436Z,87.25
2018-12-26T00:43:44.540Z,87.06
2018-12-26T00:44:10.650Z,86.49
2018-12-26T00:44:36.751Z,86.49
2018-12-26T00:45:02.858Z,86.49
2018-12-26T00:45:28.957Z,86.49
2018-12-26T00:45:55.063Z,86.21
2018-12-26T00:46:21.214Z,86.87
2018-12-26T00:46:47.318Z,86.3
2018-12-26T00:47:13.451Z,86.78
2018-12-26T00:47:39.556Z,86.49
2018-12-26T00:48:05.655Z,86.49
2018-12-26T00:48:31.762Z,86.21
2018-12-26T00:48:57.861Z,86.02
2018-12-26T00:49:23.966Z,86.02
2018-12-26T00:49:50.071Z,85.93
2018-12-26T00:50:16.173Z,86.3
2018-12-26T00:50:42.293Z,86.3
2018-12-26T00:51:08.399Z,86.11
2018-12-26T00:51:34.513Z,86.21
2018-12-26T00:52:00.617Z,86.4
2018-12-26T00:52:26.723Z,86.4
2018-12-26T00:52:52.826Z,86.4
2018-12-26T00:53:18.932Z,86.49
2018-12-26T00:53:45.040Z,86.59
2018-12-26T00:54:11.145Z,86.59
2018-12-26T00:54:37.242Z,85.74
2018-12-26T00:55:03.337Z,85.64
2018-12-26T00:55:29.439Z,86.3
2018-12-26T00:55:55.547Z,86.4
2018-12-26T00:56:22.646Z,86.11
2018-12-26T00:56:48.747Z,86.49
2018-12-26T00:57:15.850Z,85.74
2018-12-26T00:57:40.980Z,85.55
2018-12-26T00:58:07.084Z,85.36
2018-12-26T00:58:33.190Z,85.45
2018-12-26T00:58:59.283Z,85.64
2018-12-26T00:59:25.395Z,85.36
2018-12-26T00:59:51.502Z,85.55
2018-12-26T01:00:17.599Z,86.21
2018-12-26T01:00:43.704Z,86.3
2018-12-26T01:01:09.804Z,85.93
2018-12-26T01:01:35.914Z,85.55
2018-12-26T01:02:02.069Z,85.64
2018-12-26T01:02:28.174Z,86.11
2018-12-26T01:02:54.280Z,86.4
2018-12-26T01:03:20.388Z,86.4
2018-12-26T01:03:46.499Z,86.11
2018-12-26T01:04:12.684Z,86.21
2018-12-26T01:04:38.784Z,86.02
2018-12-26T01:05:04.888Z,86.02
2018-12-26T01:05:31.044Z,86.3
2018-12-26T01:05:57.106Z,86.49
2018-12-26T01:06:23.214Z,86.49
2018-12-26T01:06:49.314Z,86.3
2018-12-26T01:07:15.414Z,86.49
2018-12-26T01:07:41.515Z,86.11
2018-12-26T01:08:07.627Z,86.3
2018-12-26T01:08:33.732Z,86.4
2018-12-26T01:08:59.837Z,85.55
2018-12-26T01:09:25.936Z,85.26
2018-12-26T01:09:52.042Z,85.64
2018-12-26T01:10:18.202Z,85.45
2018-12-26T01:10:44.311Z,85.55
2018-12-26T01:11:10.439Z,85.45
2018-12-26T01:11:36.551Z,85.45
2018-12-26T01:12:02.681Z,85.55
2018-12-26T01:12:28.779Z,85.83
2018-12-26T01:12:54.914Z,85.45
2018-12-26T01:13:21.013Z,85.83
2018-12-26T01:13:47.120Z,85.74
2018-12-26T01:14:13.226Z,86.11
2018-12-26T01:14:39.331Z,86.4
2018-12-26T01:15:05.435Z,86.3
2018-12-26T01:15:31.541Z,86.02
2018-12-26T01:15:57.684Z,85.74
2018-12-26T01:16:23.792Z,85.93
2018-12-26T01:16:49.895Z,86.11
2018-12-26T01:17:15.999Z,86.4
2018-12-26T01:17:42.132Z,86.02
2018-12-26T01:18:08.689Z,85.83
2018-12-26T01:18:34.791Z,85.93
2018-12-26T01:19:01.038Z,86.68
2018-12-26T01:19:27.078Z,86.59
2018-12-26T01:19:53.184Z,86.3
2018-12-26T01:20:19.292Z,86.55
2018-12-26T01:20:45.427Z,86.59
2018-12-26T01:21:11.526Z,86.4
2018-12-26T01:21:37.630Z,86.4
2018-12-26T01:22:03.736Z,86.26
2018-12-26T01:22:29.899Z,86.59
2018-12-26T01:22:56.009Z,86.59
2018-12-26T01:23:22.140Z,86.3
2018-12-26T01:23:48.243Z,86.49
2018-12-26T01:24:14.350Z,86.21
2018-12-26T01:24:40.460Z,86.4
2018-12-26T01:25:06.561Z,86.49
2018-12-26T01:25:32.700Z,87.4
2018-12-26T01:25:58.808Z,87.06
2018-12-26T01:26:25.899Z,86.87
2018-12-26T01:26:52.006Z,86.97
2018-12-26T01:27:18.112Z,86.97
2018-12-26T01:27:44.214Z,87.02
2018-12-26T01:28:10.319Z,87.02
2018-12-26T01:28:36.448Z,87.16
2018-12-26T01:29:02.555Z,86.59
2018-12-26T01:29:28.657Z,86.78
2018-12-26T01:29:54.759Z,86.78
2018-12-26T01:30:20.866Z,86.78
2018-12-26T01:30:46.972Z,86.59
2018-12-26T01:31:13.074Z,87.16
2018-12-26T01:31:39.212Z,87.25
2018-12-26T01:32:05.341Z,86.4
2018-12-26T01:32:31.445Z,86.21
2018-12-26T01:32:57.556Z,86.49
2018-12-26T01:33:23.686Z,86.68
2018-12-26T01:33:49.792Z,86.3
2018-12-26T01:34:15.899Z,86.3
2018-12-26T01:34:42.003Z,86.21
2018-12-26T01:35:08.138Z,86.49
2018-12-26T01:35:34.244Z,86.68
2018-12-26T01:36:01.338Z,86.49
2018-12-26T01:36:27.438Z,86.97
2018-12-26T01:36:53.584Z,86.78
2018-12-26T01:37:19.697Z,86.55
2018-12-26T01:37:45.803Z,86.4
2018-12-26T01:38:11.952Z,86.78
2018-12-26T01:38:38.060Z,86.49
2018-12-26T01:39:04.161Z,87.45
2018-12-26T01:39:30.269Z,87.06
2018-12-26T01:39:56.398Z,87.06
2018-12-26T01:40:22.514Z,87.25
2018-12-26T01:40:48.655Z,86.97
2018-12-26T01:41:14.762Z,86.4
2018-12-26T01:41:40.869Z,86.3
2018-12-26T01:42:06.966Z,87.16
2018-12-26T01:42:33.107Z,86.11
2018-12-26T01:42:59.209Z,86.49
2018-12-26T01:43:25.315Z,86.87
2018-12-26T01:43:51.416Z,86.3
2018-12-26T01:44:17.556Z,86.3
2018-12-26T01:44:43.661Z,86.87
2018-12-26T01:45:09.908Z,86.49
2018-12-26T01:45:36.007Z,86.68
2018-12-26T01:46:02.116Z,86.49
2018-12-26T01:46:28.251Z,86.21
2018-12-26T01:46:54.348Z,86.49
2018-12-26T01:47:20.454Z,86.4
2018-12-26T01:47:46.555Z,86.3
2018-12-26T01:48:12.670Z,86.3
2018-12-26T01:48:38.773Z,86.49
2018-12-26T01:49:04.878Z,86.4
2018-12-26T01:49:30.981Z,86.21
2018-12-26T01:49:57.132Z,86.49
2018-12-26T01:50:23.238Z,86.49
2018-12-26T01:50:49.348Z,86.4
2018-12-26T01:51:15.455Z,86.49
2018-12-26T01:51:41.559Z,86.49
2018-12-26T01:52:07.691Z,86.78
2018-12-26T01:52:33.793Z,86.49
2018-12-26T01:52:59.906Z,86.49
2018-12-26T01:53:26.006Z,86.59
2018-12-26T01:53:52.111Z,86.59
2018-12-26T01:54:18.214Z,86.21
2018-12-26T01:54:44.322Z,86.49
2018-12-26T01:55:10.423Z,86.21
2018-12-26T01:55:36.605Z,86.59
2018-12-26T01:56:02.713Z,86.4
2018-12-26T01:56:29.811Z,86.78
2018-12-26T01:56:55.916Z,86.78
2018-12-26T01:57:22.020Z,87.06
2018-12-26T01:57:48.120Z,87.45
2018-12-26T01:58:14.235Z,87.45
2018-12-26T01:58:40.347Z,87.06
2018-12-26T01:59:07.007Z,87.06
2018-12-26T01:59:33.154Z,87.06
2018-12-26T01:59:59.254Z,86.97
2018-12-26T02:00:25.354Z,87.06
2018-12-26T02:00:51.465Z,87.16
2018-12-26T02:01:17.567Z,86.97
2018-12-26T02:01:43.702Z,86.87
2018-12-26T02:02:09.847Z,86.83
2018-12-26T02:02:35.955Z,87.12
2018-12-26T02:03:02.056Z,86.93
2018-12-26T02:03:28.188Z,87.3
2018-12-26T02:03:54.289Z,87.21
2018-12-26T02:04:20.425Z,87.21
2018-12-26T02:04:46.533Z,87.49
2018-12-26T02:05:12.640Z,87.49
2018-12-26T02:05:38.740Z,87.4
2018-12-26T02:06:04.882Z,87.3
2018-12-26T02:06:30.983Z,87.21
2018-12-26T02:06:57.078Z,87.21
2018-12-26T02:07:23.219Z,87.73
2018-12-26T02:07:49.320Z,87.59
2018-12-26T02:08:15.427Z,87.49
2018-12-26T02:08:41.554Z,87.21
2018-12-26T02:09:07.664Z,87.77
2018-12-26T02:09:33.766Z,87.68
2018-12-26T02:09:59.874Z,87.68
2018-12-26T02:10:25.976Z,87.68
2018-12-26T02:10:52.108Z,87.4
2018-12-26T02:11:18.248Z,87.68
2018-12-26T02:11:44.358Z,87.68
2018-12-26T02:12:10.453Z,87.68
2018-12-26T02:12:36.613Z,87.49
2018-12-26T02:13:02.716Z,87.77
2018-12-26T02:13:28.824Z,87.49
2018-12-26T02:13:54.925Z,87.4
2018-12-26T02:14:21.024Z,87.49
2018-12-26T02:14:47.131Z,87.49
2018-12-26T02:15:13.229Z,87.4
2018-12-26T02:15:39.396Z,87.4
2018-12-26T02:16:05.495Z,87.4
2018-12-26T02:16:31.599Z,87.21
2018-12-26T02:16:57.724Z,87.4
2018-12-26T02:17:23.857Z,87.4
2018-12-26T02:17:49.959Z,87.3
2018-12-26T02:18:16.069Z,87.4
2018-12-26T02:18:42.177Z,87.49
2018-12-26T02:19:08.308Z,87.4
2018-12-26T02:19:34.410Z,87.49
2018-12-26T02:20:00.517Z,87.4
2018-12-26T02:20:26.626Z,87.77
2018-12-26T02:20:52.726Z,87.59
2018-12-26T02:21:18.865Z,87.97
2018-12-26T02:21:44.970Z,87.68
2018-12-26T02:22:11.077Z,87.49
2018-12-26T02:22:37.203Z,87.4
2018-12-26T02:23:03.314Z,88.35
2018-12-26T02:23:29.469Z,88.35
2018-12-26T02:23:55.548Z,88.54
2018-12-26T02:24:21.654Z,88.16
2018-12-26T02:24:47.782Z,88.25
2018-12-26T02:25:13.887Z,88.06
2018-12-26T02:25:39.984Z,88.44
2018-12-26T02:26:06.089Z,88.44
2018-12-26T02:26:36.328Z,88.63
2018-12-26T02:26:59.292Z,87.87
2018-12-26T02:27:25.430Z,88.16
2018-12-26T02:27:51.553Z,88.16
2018-12-26T02:28:17.656Z,88.16
2018-12-26T02:28:43.797Z,88.44
2018-12-26T02:29:09.910Z,88.16
2018-12-26T02:29:36.006Z,88.25
2018-12-26T02:30:02.120Z,88.35
2018-12-26T02:30:28.278Z,88.44
2018-12-26T02:30:54.391Z,88.16
2018-12-26T02:31:20.545Z,88.44
2018-12-26T02:31:46.646Z,87.97
2018-12-26T02:32:12.756Z,88.06
2018-12-26T02:32:39.880Z,88.35
2018-12-26T02:33:06.023Z,88.06
2018-12-26T02:33:32.162Z,88.35
2018-12-26T02:33:58.265Z,88.44
2018-12-26T02:34:24.399Z,88.16
2018-12-26T02:34:50.518Z,87.97
2018-12-26T02:35:16.638Z,88.44
2018-12-26T02:35:42.723Z,88.44
2018-12-26T02:36:08.836Z,88.35
2018-12-26T02:36:34.940Z,87.97
2018-12-26T02:37:01.040Z,88.25
2018-12-26T02:37:27.144Z,88.25
2018-12-26T02:37:53.254Z,88.44
2018-12-26T02:38:19.351Z,88.25
2018-12-26T02:38:45.459Z,88.44
2018-12-26T02:39:11.591Z,88.25
2018-12-26T02:39:37.691Z,88.44
2018-12-26T02:40:03.801Z,88.35
2018-12-26T02:40:29.983Z,88.35
2018-12-26T02:40:56.093Z,88.25
2018-12-26T02:41:22.194Z,88.44
2018-12-26T02:41:48.332Z,88.54
2018-12-26T02:42:14.461Z,88.25
2018-12-26T02:42:40.565Z,88.25
2018-12-26T02:43:06.698Z,88.06
2018-12-26T02:43:32.800Z,88.44
2018-12-26T02:43:58.934Z,88.54
2018-12-26T02:44:25.036Z,88.06
2018-12-26T02:44:51.140Z,88.06
2018-12-26T02:45:17.273Z,88.06
2018-12-26T02:45:43.448Z,88.35
2018-12-26T02:46:09.503Z,88.35
2018-12-26T02:46:35.637Z,88.25
2018-12-26T02:47:01.744Z,88.16
2018-12-26T02:47:27.879Z,88.16
2018-12-26T02:47:53.985Z,87.97
2018-12-26T02:48:20.093Z,87.97
2018-12-26T02:48:46.195Z,88.35
2018-12-26T02:49:12.349Z,88.35
2018-12-26T02:49:38.479Z,88.35
2018-12-26T02:50:04.649Z,88.35
2018-12-26T02:50:30.748Z,88.35
2018-12-26T02:50:56.855Z,88.35
2018-12-26T02:51:22.995Z,88.54
2018-12-26T02:51:49.161Z,88.44
2018-12-26T02:52:15.259Z,87.97
2018-12-26T02:52:41.371Z,88.06
2018-12-26T02:53:07.527Z,88.06
2018-12-26T02:53:33.628Z,88.44
2018-12-26T02:53:59.735Z,88.54
2018-12-26T02:54:25.870Z,88.06
2018-12-26T02:54:52.032Z,87.97
2018-12-26T02:55:18.163Z,88.35
2018-12-26T02:55:44.278Z,88.16
2018-12-26T02:56:10.386Z,88.06
2018-12-26T02:56:46.122Z,88.44
2018-12-26T02:57:04.839Z,88.35
2018-12-26T02:57:30.995Z,88.35
2018-12-26T02:57:57.098Z,88.25
2018-12-26T02:58:23.205Z,88.16
2018-12-26T02:58:49.332Z,88.35
2018-12-26T02:59:15.441Z,88.06
2018-12-26T02:59:41.571Z,88.35
2018-12-26T03:00:07.680Z,88.44
2018-12-26T03:00:33.778Z,88.35
2018-12-26T03:00:59.913Z,88.44
2018-12-26T03:01:26.019Z,88.44
2018-12-26T03:01:52.124Z,88.54
2018-12-26T03:02:18.227Z,88.35
2018-12-26T03:02:44.325Z,88.54
2018-12-26T03:03:10.452Z,88.73
2018-12-26T03:03:36.559Z,88.44
2018-12-26T03:04:02.751Z,88.82
2018-12-26T03:04:28.882Z,88.73
2018-12-26T03:04:55.067Z,88.82
2018-12-26T03:05:21.240Z,88.73
2018-12-26T03:05:47.348Z,88.92
2018-12-26T03:06:13.533Z,89.11
2018-12-26T03:06:39.637Z,89.2
2018-12-26T03:07:05.732Z,89.11
2018-12-26T03:07:31.845Z,88.82
2018-12-26T03:07:57.944Z,89.01
2018-12-26T03:08:24.046Z,88.82
2018-12-26T03:08:50.144Z,89.11
2018-12-26T03:09:16.252Z,89.48
2018-12-26T03:09:42.386Z,89.29
2018-12-26T03:10:08.583Z,89.39
2018-12-26T03:10:34.722Z,89.39
2018-12-26T03:11:00.818Z,88.82
2018-12-26T03:11:26.927Z,89.01
2018-12-26T03:11:53.029Z,88.92
2018-12-26T03:12:19.130Z,89.11
2018-12-26T03:12:45.233Z,88.82
2018-12-26T03:13:11.335Z,89.58
2018-12-26T03:13:37.438Z,89.11
2018-12-26T03:14:03.693Z,89.11
2018-12-26T03:14:29.826Z,88.92
2018-12-26T03:14:55.935Z,89.29
2018-12-26T03:15:22.035Z,89.01
2018-12-26T03:15:48.135Z,88.73
2018-12-26T03:16:14.242Z,88.82
2018-12-26T03:16:40.372Z,88.73
2018-12-26T03:17:06.503Z,89.29
2018-12-26T03:17:32.667Z,89.01
2018-12-26T03:17:58.824Z,89.2
2018-12-26T03:18:24.929Z,88.82
2018-12-26T03:18:51.062Z,88.73
2018-12-26T03:19:17.164Z,89.39
2018-12-26T03:19:43.271Z,89.29
2018-12-26T03:20:09.382Z,89.39
2018-12-26T03:20:35.485Z,89.48
2018-12-26T03:21:01.615Z,89.11
2018-12-26T03:21:27.719Z,89.11
2018-12-26T03:21:53.819Z,89.2
2018-12-26T03:22:19.926Z,89.39
2018-12-26T03:22:46.059Z,89.67
2018-12-26T03:23:12.192Z,89.67
2018-12-26T03:23:38.295Z,89.67
2018-12-26T03:24:04.398Z,89.77
2018-12-26T03:24:30.553Z,89.2
2018-12-26T03:24:56.660Z,89.11
2018-12-26T03:25:22.758Z,89.29
2018-12-26T03:25:48.866Z,89.58
2018-12-26T03:26:14.970Z,89.29
2018-12-26T03:26:41.111Z,89.39
2018-12-26T03:27:08.228Z,89.11
2018-12-26T03:27:34.386Z,88.92
2018-12-26T03:28:00.494Z,89.58
2018-12-26T03:28:26.593Z,89.39
2018-12-26T03:28:52.727Z,89.86
2018-12-26T03:29:18.839Z,89.96
2018-12-26T03:29:44.938Z,89.86
2018-12-26T03:30:11.068Z,89.96
2018-12-26T03:30:37.206Z,89.77
2018-12-26T03:31:03.351Z,89.77
2018-12-26T03:31:29.548Z,89.96
2018-12-26T03:31:55.760Z,89.77
2018-12-26T03:32:21.923Z,89.86
2018-12-26T03:32:48.117Z,89.67
2018-12-26T03:33:14.271Z,89.58
2018-12-26T03:33:40.364Z,89.77
2018-12-26T03:34:06.497Z,89.48
2018-12-26T03:34:32.611Z,89.77
2018-12-26T03:34:58.721Z,89.58
2018-12-26T03:35:24.886Z,89.58
2018-12-26T03:35:51.020Z,89.96
2018-12-26T03:36:17.171Z,90.05
2018-12-26T03:36:43.277Z,90.15
2018-12-26T03:37:09.437Z,90.43
2018-12-26T03:37:35.541Z,90.15
2018-12-26T03:38:01.643Z,90.53
2018-12-26T03:38:27.751Z,90.34
2018-12-26T03:38:53.851Z,90.24
2018-12-26T03:39:19.949Z,90.24
2018-12-26T03:39:46.085Z,90.34
2018-12-26T03:40:12.275Z,90.62
2018-12-26T03:40:38.380Z,90.72
2018-12-26T03:41:04.513Z,90.05
2018-12-26T03:41:30.650Z,90.24
2018-12-26T03:41:56.775Z,90.15
2018-12-26T03:42:22.874Z,90.62
2018-12-26T03:42:48.986Z,90.34
2018-12-26T03:43:15.160Z,90.29
2018-12-26T03:43:41.268Z,90.48
2018-12-26T03:44:07.398Z,90.91
2018-12-26T03:44:33.499Z,91.09
2018-12-26T03:44:59.601Z,90.53
2018-12-26T03:45:25.740Z,91.14
2018-12-26T03:45:51.930Z,90.58
2018-12-26T03:46:17.983Z,90.95
2018-12-26T03:46:44.146Z,91.19
2018-12-26T03:47:10.247Z,91.14
2018-12-26T03:47:36.354Z,90.91
2018-12-26T03:48:02.451Z,90.77
2018-12-26T03:48:28.585Z,90.67
2018-12-26T03:48:54.692Z,90.91
2018-12-26T03:49:20.798Z,90.58
2018-12-26T03:49:46.923Z,90.86
2018-12-26T03:50:13.032Z,90.86
2018-12-26T03:50:39.185Z,90.72
2018-12-26T03:51:05.286Z,90.86
2018-12-26T03:51:31.418Z,90.81
2018-12-26T03:51:57.519Z,90.86
2018-12-26T03:52:23.651Z,90.62
2018-12-26T03:52:49.761Z,91.57
2018-12-26T03:53:15.892Z,91.66
2018-12-26T03:53:42.034Z,91
2018-12-26T03:54:08.139Z,91
2018-12-26T03:54:34.241Z,91.28
2018-12-26T03:55:00.378Z,90.53
2018-12-26T03:55:26.561Z,91.19
2018-12-26T03:55:52.662Z,90.81
2018-12-26T03:56:18.763Z,90.91
2018-12-26T03:56:44.874Z,90.62
2018-12-26T03:57:11.979Z,90.72
2018-12-26T03:57:38.139Z,91.09
2018-12-26T03:58:04.245Z,90.81
2018-12-26T03:58:30.374Z,90.81
2018-12-26T03:58:56.485Z,90.81
2018-12-26T03:59:22.587Z,91
2018-12-26T03:59:48.691Z,91.28
2018-12-26T04:00:14.817Z,90.91
2018-12-26T04:00:40.927Z,90.81
2018-12-26T04:01:07.053Z,90.72
2018-12-26T04:01:33.161Z,90.91
2018-12-26T04:01:59.316Z,90.91
2018-12-26T04:02:25.417Z,90.91
2018-12-26T04:02:51.537Z,90.91
2018-12-26T04:03:17.654Z,91.19
2018-12-26T04:03:43.758Z,90.72
2018-12-26T04:04:09.886Z,91.09
2018-12-26T04:04:36.011Z,90.53
2018-12-26T04:05:02.123Z,90.81
2018-12-26T04:05:28.251Z,90.81
2018-12-26T04:05:54.360Z,90.81
2018-12-26T04:06:20.483Z,91
2018-12-26T04:06:46.585Z,91.14
2018-12-26T04:07:12.686Z,90.95
2018-12-26T04:07:38.862Z,91.43
2018-12-26T04:08:05.002Z,91.52
2018-12-26T04:08:31.106Z,91.38
2018-12-26T04:08:57.240Z,91.38
2018-12-26T04:09:23.351Z,91.38
2018-12-26T04:09:49.454Z,91.38
2018-12-26T04:10:15.559Z,91.38
2018-12-26T04:10:41.710Z,91.47
2018-12-26T04:11:07.809Z,91.33
2018-12-26T04:11:33.946Z,91.33
2018-12-26T04:12:00.072Z,91.38
2018-12-26T04:12:26.231Z,91.24
2018-12-26T04:12:52.331Z,91.24
2018-12-26T04:13:18.490Z,91
2018-12-26T04:13:44.596Z,91.38
2018-12-26T04:14:10.708Z,91.43
2018-12-26T04:14:36.847Z,91.62
2018-12-26T04:15:02.952Z,91.47
2018-12-26T04:15:29.061Z,91.66
2018-12-26T04:15:55.194Z,91.09
2018-12-26T04:16:21.318Z,91.09
2018-12-26T04:16:47.454Z,91.47
2018-12-26T04:17:13.555Z,91.38
2018-12-26T04:17:39.663Z,91.38
2018-12-26T04:18:05.771Z,91.28
2018-12-26T04:18:31.909Z,91.57
2018-12-26T04:18:58.017Z,91.66
2018-12-26T04:19:24.115Z,91.47
2018-12-26T04:19:50.216Z,91.38
2018-12-26T04:20:16.351Z,91.47
2018-12-26T04:20:42.482Z,91.28
2018-12-26T04:21:08.588Z,91.38
2018-12-26T04:21:34.699Z,91.57
2018-12-26T04:22:00.800Z,91.66
2018-12-26T04:22:26.932Z,91.57
2018-12-26T04:22:53.059Z,91.57
2018-12-26T04:23:19.227Z,91.57
2018-12-26T04:23:45.331Z,91.66
2018-12-26T04:24:11.438Z,91
2018-12-26T04:24:37.598Z,91.66
2018-12-26T04:25:03.703Z,91.09
2018-12-26T04:25:29.833Z,91.28
2018-12-26T04:25:55.937Z,91
2018-12-26T04:26:22.065Z,91.09
2018-12-26T04:26:48.192Z,91.05
2018-12-26T04:27:15.874Z,91.52
2018-12-26T04:27:41.967Z,91.24
2018-12-26T04:28:08.075Z,91.24
2018-12-26T04:28:34.169Z,91.28
2018-12-26T04:29:00.278Z,91.38
2018-12-26T04:29:26.381Z,91.47
2018-12-26T04:29:52.546Z,91.09
2018-12-26T04:30:18.645Z,91.28
2018-12-26T04:30:44.756Z,91.28
2018-12-26T04:31:10.860Z,91.38
2018-12-26T04:31:36.995Z,91.47
2018-12-26T04:32:03.090Z,91.47
2018-12-26T04:32:29.193Z,91.38
2018-12-26T04:32:55.305Z,91.38
2018-12-26T04:33:21.449Z,91.47
2018-12-26T04:33:47.570Z,91.47
2018-12-26T04:34:13.677Z,91.47
2018-12-26T04:34:39.782Z,91.09
2018-12-26T04:35:05.910Z,91.38
2018-12-26T04:35:32.015Z,91.09
2018-12-26T04:35:58.121Z,91.38
2018-12-26T04:36:24.280Z,91.38
2018-12-26T04:36:50.413Z,91.38
2018-12-26T04:37:16.520Z,91.47
2018-12-26T04:37:42.621Z,91.38
2018-12-26T04:38:08.747Z,91.19
2018-12-26T04:38:34.886Z,91.57
2018-12-26T04:39:00.986Z,91.57
2018-12-26T04:39:27.096Z,91.38
2018-12-26T04:39:53.215Z,91.09
2018-12-26T04:40:19.366Z,91.57
2018-12-26T04:40:45.467Z,91.47
2018-12-26T04:41:11.570Z,91.19
2018-12-26T04:41:37.676Z,91.66
2018-12-26T04:42:03.784Z,91.47
2018-12-26T04:42:29.890Z,91.38
2018-12-26T04:42:56.017Z,91.57
2018-12-26T04:43:22.128Z,91.66
2018-12-26T04:43:48.252Z,91.57
2018-12-26T04:44:14.354Z,91.38
2018-12-26T04:44:40.497Z,91.38
2018-12-26T04:45:06.592Z,91.38
2018-12-26T04:45:32.691Z,91.47
2018-12-26T04:45:58.805Z,91.19
2018-12-26T04:46:24.906Z,91.47
2018-12-26T04:46:51.012Z,91.28
2018-12-26T04:47:17.141Z,91.57
2018-12-26T04:47:43.243Z,91.57
2018-12-26T04:48:09.347Z,91.09
2018-12-26T04:48:35.472Z,91
2018-12-26T04:49:01.613Z,91.28
2018-12-26T04:49:28.728Z,90.72
2018-12-26T04:49:54.956Z,91.19
2018-12-26T04:50:21.060Z,91.19
2018-12-26T04:50:47.163Z,91.19
2018-12-26T04:51:13.296Z,91.09
2018-12-26T04:51:39.400Z,91
2018-12-26T04:52:05.532Z,90.43
2018-12-26T04:52:31.634Z,90.81
2018-12-26T04:52:57.741Z,90.81
2018-12-26T04:53:23.841Z,91.09
2018-12-26T04:53:49.951Z,91.09
2018-12-26T04:54:16.051Z,91.09
2018-12-26T04:54:42.206Z,91
2018-12-26T04:55:08.314Z,91.19
2018-12-26T04:55:34.422Z,90.72
2018-12-26T04:56:00.537Z,91.28
2018-12-26T04:56:26.667Z,91.09
2018-12-26T04:56:52.808Z,91.28
2018-12-26T04:57:24.605Z,91.09
2018-12-26T04:57:46.102Z,91.09
2018-12-26T04:58:12.211Z,91.28
2018-12-26T04:58:38.421Z,91.28
2018-12-26T04:59:04.527Z,91.09
2018-12-26T04:59:30.630Z,91.28
2018-12-26T04:59:56.772Z,91.38
2018-12-26T05:00:22.903Z,91.09
2018-12-26T05:00:49.036Z,90.81
2018-12-26T05:01:15.190Z,91.19
2018-12-26T05:01:42.205Z,91.28
2018-12-26T05:02:07.441Z,91
2018-12-26T05:02:33.617Z,91.57
2018-12-26T05:02:59.721Z,91.57
2018-12-26T05:03:25.835Z,91.28
2018-12-26T05:03:51.981Z,91.47
2018-12-26T05:04:18.148Z,91.28
2018-12-26T05:04:44.250Z,91.66
2018-12-26T05:05:10.355Z,91.28
2018-12-26T05:05:36.456Z,91.57
2018-12-26T05:06:02.565Z,91.57
2018-12-26T05:06:28.664Z,91.57
2018-12-26T05:06:54.801Z,91.47
2018-12-26T05:07:20.902Z,91.09
2018-12-26T05:07:47.040Z,91
2018-12-26T05:08:13.145Z,91.09
2018-12-26T05:08:39.242Z,91.66
2018-12-26T05:09:05.378Z,91.38
2018-12-26T05:09:31.509Z,91.28
2018-12-26T05:09:57.641Z,91.09
2018-12-26T05:10:23.768Z,91.28
2018-12-26T05:10:49.910Z,91.09
2018-12-26T05:11:16.016Z,91.38
2018-12-26T05:11:42.150Z,91.28
2018-12-26T05:12:08.283Z,91.09
2018-12-26T05:12:34.390Z,91.66
2018-12-26T05:13:00.496Z,91.47
2018-12-26T05:13:26.599Z,91.28
2018-12-26T05:13:52.729Z,91.57
2018-12-26T05:14:18.845Z,91.57
2018-12-26T05:14:44.952Z,91.57
2018-12-26T05:15:11.087Z,91.47
2018-12-26T05:15:37.186Z,91.66
2018-12-26T05:16:03.302Z,91.28
2018-12-26T05:16:29.431Z,91.47
2018-12-26T05:16:55.535Z,91.19
2018-12-26T05:17:21.636Z,91.28
2018-12-26T05:17:47.742Z,90.91
2018-12-26T05:18:13.883Z,91.47
2018-12-26T05:18:39.982Z,91.28
2018-12-26T05:19:06.081Z,91.57
2018-12-26T05:19:32.180Z,91.09
2018-12-26T05:19:58.283Z,91.09
2018-12-26T05:20:24.393Z,91.38
2018-12-26T05:20:50.497Z,91.47
2018-12-26T05:21:16.605Z,91.47
2018-12-26T05:21:42.708Z,91.95
2018-12-26T05:22:08.821Z,91.95
2018-12-26T05:22:34.908Z,92.14
2018-12-26T05:23:01.084Z,92.04
2018-12-26T05:23:27.137Z,92.04
2018-12-26T05:23:53.262Z,92.33
2018-12-26T05:24:19.399Z,92.04
2018-12-26T05:24:45.527Z,91.95
2018-12-26T05:25:11.660Z,92.52
2018-12-26T05:25:37.763Z,92.23
2018-12-26T05:26:03.889Z,92.14
2018-12-26T05:26:30.023Z,92.33
2018-12-26T05:26:56.187Z,92.99
2018-12-26T05:27:22.282Z,92.9
2018-12-26T05:27:49.470Z,91.85
2018-12-26T05:28:15.622Z,92.61
2018-12-26T05:28:41.721Z,92.33
2018-12-26T05:29:07.821Z,92.33
2018-12-26T05:29:33.930Z,92.42
2018-12-26T05:30:00.029Z,92.04
2018-12-26T05:30:26.171Z,92.33
2018-12-26T05:30:52.272Z,92.42
2018-12-26T05:31:18.406Z,92.52
2018-12-26T05:31:44.512Z,92.23
2018-12-26T05:32:10.614Z,91.85
2018-12-26T05:32:36.719Z,92.8
2018-12-26T05:33:02.821Z,92.42
2018-12-26T05:33:28.952Z,92.52
2018-12-26T05:33:55.054Z,92.8
2018-12-26T05:34:21.157Z,92.8
2018-12-26T05:34:47.270Z,92.33
2018-12-26T05:35:13.368Z,92.99
2018-12-26T05:35:39.521Z,92.99
2018-12-26T05:36:05.649Z,92.71
2018-12-26T05:36:31.806Z,92.99
2018-12-26T05:36:57.913Z,92.61
2018-12-26T05:37:24.045Z,93.27
2018-12-26T05:37:50.172Z,93.18
2018-12-26T05:38:16.282Z,93.08